sensor_id;sensor_type;location;lat;lon;timestamp;P1;durP1;ratioP1;P2;durP2;ratioP2
1390;SDS011;690;51.454;7.194;2023-01-23T00:00:39;30.90;;;18.08;;
1390;SDS011;690;51.454;7.194;2023-01-23T00:03:07;24.95;;;17.67;;
1390;SDS011;690;51.454;7.194;2023-01-23T00:05:34;23.90;;;16.55;;
1390;SDS011;690;51.454;7.194;2023-01-23T00:08:01;23.23;;;15.52;;
1390;SDS011;690;51.454;7.194;2023-01-23T00:10:28;21.05;;;15.27;;
1390;SDS011;690;51.454;7.194;2023-01-23T00:12:54;26.00;;;17.27;;
1390;SDS011;690;51.454;7.194;2023-01-23T00:15:23;23.45;;;16.85;;
1390;SDS011;690;51.454;7.194;2023-01-23T00:17:51;22.98;;;16.42;;
1390;SDS011;690;51.454;7.194;2023-01-23T00:20:18;23.63;;;16.40;;
1390;SDS011;690;51.454;7.194;2023-01-23T00:22:45;25.45;;;16.65;;
1390;SDS011;690;51.454;7.194;2023-01-23T00:25:12;19.73;;;15.13;;
1390;SDS011;690;51.454;7.194;2023-01-23T00:27:38;20.42;;;14.95;;
1390;SDS011;690;51.454;7.194;2023-01-23T00:30:06;27.38;;;16.02;;
1390;SDS011;690;51.454;7.194;2023-01-23T00:32:35;22.55;;;15.13;;
1390;SDS011;690;51.454;7.194;2023-01-23T00:35:02;23.02;;;15.15;;
1390;SDS011;690;51.454;7.194;2023-01-23T00:37:29;24.17;;;14.52;;
1390;SDS011;690;51.454;7.194;2023-01-23T00:39:56;22.55;;;15.43;;
1390;SDS011;690;51.454;7.194;2023-01-23T00:42:23;20.23;;;13.98;;
1390;SDS011;690;51.454;7.194;2023-01-23T00:44:50;24.50;;;16.38;;
1390;SDS011;690;51.454;7.194;2023-01-23T00:47:17;20.60;;;14.52;;
1390;SDS011;690;51.454;7.194;2023-01-23T00:49:45;21.65;;;14.02;;
1390;SDS011;690;51.454;7.194;2023-01-23T00:52:12;24.73;;;15.52;;
1390;SDS011;690;51.454;7.194;2023-01-23T00:54:39;20.27;;;14.00;;
1390;SDS011;690;51.454;7.194;2023-01-23T00:57:05;19.30;;;14.00;;
1390;SDS011;690;51.454;7.194;2023-01-23T00:59:32;19.40;;;13.25;;
1390;SDS011;690;51.454;7.194;2023-01-23T01:01:59;20.38;;;13.85;;
1390;SDS011;690;51.454;7.194;2023-01-23T01:04:26;20.77;;;14.02;;
1390;SDS011;690;51.454;7.194;2023-01-23T01:06:54;21.70;;;13.82;;
1390;SDS011;690;51.454;7.194;2023-01-23T01:09:21;20.67;;;13.88;;
1390;SDS011;690;51.454;7.194;2023-01-23T01:11:48;20.77;;;14.77;;
1390;SDS011;690;51.454;7.194;2023-01-23T01:14:15;20.58;;;13.88;;
1390;SDS011;690;51.454;7.194;2023-01-23T01:16:42;19.20;;;13.60;;
1390;SDS011;690;51.454;7.194;2023-01-23T01:19:10;20.50;;;13.88;;
1390;SDS011;690;51.454;7.194;2023-01-23T01:21:38;22.27;;;13.00;;
1390;SDS011;690;51.454;7.194;2023-01-23T01:24:07;21.80;;;12.98;;
1390;SDS011;690;51.454;7.194;2023-01-23T01:26:34;20.60;;;14.25;;
1390;SDS011;690;51.454;7.194;2023-01-23T01:29:01;21.15;;;14.20;;
1390;SDS011;690;51.454;7.194;2023-01-23T01:31:28;19.83;;;13.85;;
1390;SDS011;690;51.454;7.194;2023-01-23T01:33:55;24.75;;;13.82;;
1390;SDS011;690;51.454;7.194;2023-01-23T01:36:22;21.70;;;14.98;;
1390;SDS011;690;51.454;7.194;2023-01-23T01:38:51;22.13;;;14.20;;
1390;SDS011;690;51.454;7.194;2023-01-23T01:41:19;21.60;;;14.52;;
1390;SDS011;690;51.454;7.194;2023-01-23T01:43:46;21.40;;;14.82;;
1390;SDS011;690;51.454;7.194;2023-01-23T01:46:17;22.60;;;14.65;;
1390;SDS011;690;51.454;7.194;2023-01-23T01:49:00;23.20;;;15.00;;
1390;SDS011;690;51.454;7.194;2023-01-23T01:51:32;22.98;;;14.82;;
1390;SDS011;690;51.454;7.194;2023-01-23T01:54:05;21.45;;;13.63;;
1390;SDS011;690;51.454;7.194;2023-01-23T01:56:38;23.65;;;14.90;;
1390;SDS011;690;51.454;7.194;2023-01-23T01:59:09;23.52;;;14.27;;
1390;SDS011;690;51.454;7.194;2023-01-23T02:01:37;23.10;;;14.63;;
1390;SDS011;690;51.454;7.194;2023-01-23T02:04:06;24.15;;;14.13;;
1390;SDS011;690;51.454;7.194;2023-01-23T02:06:34;22.88;;;14.07;;
1390;SDS011;690;51.454;7.194;2023-01-23T02:09:02;22.58;;;14.93;;
1390;SDS011;690;51.454;7.194;2023-01-23T02:11:33;24.55;;;15.68;;
1390;SDS011;690;51.454;7.194;2023-01-23T02:14:02;24.42;;;15.82;;
1390;SDS011;690;51.454;7.194;2023-01-23T02:16:30;23.85;;;16.33;;
1390;SDS011;690;51.454;7.194;2023-01-23T02:19:07;22.15;;;15.02;;
1390;SDS011;690;51.454;7.194;2023-01-23T02:21:41;20.13;;;13.88;;
1390;SDS011;690;51.454;7.194;2023-01-23T02:24:12;22.75;;;15.23;;
1390;SDS011;690;51.454;7.194;2023-01-23T02:26:45;24.95;;;15.65;;
1390;SDS011;690;51.454;7.194;2023-01-23T02:29:13;24.05;;;16.13;;
1390;SDS011;690;51.454;7.194;2023-01-23T02:31:43;26.80;;;16.70;;
1390;SDS011;690;51.454;7.194;2023-01-23T02:34:10;27.98;;;16.02;;
1390;SDS011;690;51.454;7.194;2023-01-23T02:36:38;22.77;;;14.75;;
1390;SDS011;690;51.454;7.194;2023-01-23T02:39:09;24.23;;;15.30;;
1390;SDS011;690;51.454;7.194;2023-01-23T02:41:39;25.48;;;17.08;;
1390;SDS011;690;51.454;7.194;2023-01-23T02:44:10;26.30;;;14.77;;
1390;SDS011;690;51.454;7.194;2023-01-23T02:46:40;22.92;;;14.98;;
1390;SDS011;690;51.454;7.194;2023-01-23T02:49:07;22.75;;;15.75;;
1390;SDS011;690;51.454;7.194;2023-01-23T02:51:34;22.42;;;13.98;;
1390;SDS011;690;51.454;7.194;2023-01-23T02:54:01;26.27;;;15.07;;
1390;SDS011;690;51.454;7.194;2023-01-23T02:56:27;24.25;;;16.58;;
1390;SDS011;690;51.454;7.194;2023-01-23T02:58:54;21.80;;;14.57;;
1390;SDS011;690;51.454;7.194;2023-01-23T03:01:40;22.13;;;13.82;;
1390;SDS011;690;51.454;7.194;2023-01-23T03:04:07;23.67;;;15.25;;
1390;SDS011;690;51.454;7.194;2023-01-23T03:06:34;23.33;;;14.65;;
1390;SDS011;690;51.454;7.194;2023-01-23T03:09:06;25.55;;;15.80;;
1390;SDS011;690;51.454;7.194;2023-01-23T03:11:35;26.23;;;16.83;;
1390;SDS011;690;51.454;7.194;2023-01-23T03:14:03;23.83;;;14.45;;
1390;SDS011;690;51.454;7.194;2023-01-23T03:16:32;26.85;;;15.50;;
1390;SDS011;690;51.454;7.194;2023-01-23T03:19:01;24.20;;;14.60;;
1390;SDS011;690;51.454;7.194;2023-01-23T03:21:32;23.92;;;15.32;;
1390;SDS011;690;51.454;7.194;2023-01-23T03:24:01;23.35;;;15.05;;
1390;SDS011;690;51.454;7.194;2023-01-23T03:26:29;25.27;;;16.30;;
1390;SDS011;690;51.454;7.194;2023-01-23T03:28:56;24.70;;;15.23;;
1390;SDS011;690;51.454;7.194;2023-01-23T03:31:41;25.40;;;15.75;;
1390;SDS011;690;51.454;7.194;2023-01-23T03:34:09;25.42;;;15.60;;
1390;SDS011;690;51.454;7.194;2023-01-23T03:36:36;25.95;;;16.60;;
1390;SDS011;690;51.454;7.194;2023-01-23T03:39:04;26.48;;;16.27;;
1390;SDS011;690;51.454;7.194;2023-01-23T03:41:49;22.67;;;15.73;;
1390;SDS011;690;51.454;7.194;2023-01-23T03:44:16;23.90;;;16.17;;
1390;SDS011;690;51.454;7.194;2023-01-23T03:46:44;23.73;;;16.67;;
1390;SDS011;690;51.454;7.194;2023-01-23T03:49:12;23.77;;;15.90;;
1390;SDS011;690;51.454;7.194;2023-01-23T03:51:39;27.65;;;16.75;;
1390;SDS011;690;51.454;7.194;2023-01-23T03:54:06;27.92;;;16.88;;
1390;SDS011;690;51.454;7.194;2023-01-23T03:56:33;28.08;;;17.40;;
1390;SDS011;690;51.454;7.194;2023-01-23T03:59:01;27.05;;;16.92;;
1390;SDS011;690;51.454;7.194;2023-01-23T04:01:28;28.05;;;15.88;;
1390;SDS011;690;51.454;7.194;2023-01-23T04:03:55;28.63;;;17.10;;
1390;SDS011;690;51.454;7.194;2023-01-23T04:06:23;25.55;;;16.52;;
1390;SDS011;690;51.454;7.194;2023-01-23T04:08:50;21.40;;;15.77;;
1390;SDS011;690;51.454;7.194;2023-01-23T04:11:16;29.15;;;17.67;;
1390;SDS011;690;51.454;7.194;2023-01-23T04:13:44;28.48;;;16.95;;
1390;SDS011;690;51.454;7.194;2023-01-23T04:16:11;30.77;;;17.27;;
1390;SDS011;690;51.454;7.194;2023-01-23T04:18:38;25.83;;;17.77;;
1390;SDS011;690;51.454;7.194;2023-01-23T04:21:05;24.48;;;15.43;;
1390;SDS011;690;51.454;7.194;2023-01-23T04:23:34;25.00;;;16.52;;
1390;SDS011;690;51.454;7.194;2023-01-23T04:26:01;24.52;;;17.48;;
1390;SDS011;690;51.454;7.194;2023-01-23T04:28:28;25.63;;;16.88;;
1390;SDS011;690;51.454;7.194;2023-01-23T04:30:55;23.85;;;17.02;;
1390;SDS011;690;51.454;7.194;2023-01-23T04:33:22;25.85;;;16.60;;
1390;SDS011;690;51.454;7.194;2023-01-23T04:35:50;24.40;;;16.58;;
1390;SDS011;690;51.454;7.194;2023-01-23T04:38:18;26.80;;;17.33;;
1390;SDS011;690;51.454;7.194;2023-01-23T04:40:47;25.45;;;16.20;;
1390;SDS011;690;51.454;7.194;2023-01-23T04:43:15;31.40;;;16.83;;
1390;SDS011;690;51.454;7.194;2023-01-23T04:45:42;27.48;;;17.55;;
1390;SDS011;690;51.454;7.194;2023-01-23T04:48:09;25.95;;;16.17;;
1390;SDS011;690;51.454;7.194;2023-01-23T04:50:36;26.27;;;17.35;;
1390;SDS011;690;51.454;7.194;2023-01-23T04:53:03;23.70;;;16.40;;
1390;SDS011;690;51.454;7.194;2023-01-23T04:55:30;22.98;;;15.10;;
1390;SDS011;690;51.454;7.194;2023-01-23T04:57:59;27.52;;;17.08;;
1390;SDS011;690;51.454;7.194;2023-01-23T05:00:26;24.55;;;15.88;;
1390;SDS011;690;51.454;7.194;2023-01-23T05:02:54;25.00;;;16.92;;
1390;SDS011;690;51.454;7.194;2023-01-23T05:05:21;24.45;;;16.52;;
1390;SDS011;690;51.454;7.194;2023-01-23T05:07:49;25.70;;;15.90;;
1390;SDS011;690;51.454;7.194;2023-01-23T05:10:16;23.33;;;16.02;;
1390;SDS011;690;51.454;7.194;2023-01-23T05:12:43;24.67;;;15.68;;
1390;SDS011;690;51.454;7.194;2023-01-23T05:15:12;24.95;;;16.20;;
1390;SDS011;690;51.454;7.194;2023-01-23T05:17:39;24.35;;;15.85;;
1390;SDS011;690;51.454;7.194;2023-01-23T05:20:06;22.40;;;14.50;;
1390;SDS011;690;51.454;7.194;2023-01-23T05:22:34;27.83;;;17.30;;
1390;SDS011;690;51.454;7.194;2023-01-23T05:25:01;24.05;;;15.73;;
1390;SDS011;690;51.454;7.194;2023-01-23T05:27:28;25.58;;;16.23;;
1390;SDS011;690;51.454;7.194;2023-01-23T05:29:54;24.80;;;16.42;;
1390;SDS011;690;51.454;7.194;2023-01-23T05:32:23;27.55;;;17.67;;
1390;SDS011;690;51.454;7.194;2023-01-23T05:34:49;22.83;;;15.80;;
1390;SDS011;690;51.454;7.194;2023-01-23T05:37:16;26.60;;;17.27;;
1390;SDS011;690;51.454;7.194;2023-01-23T05:39:44;25.45;;;16.95;;
1390;SDS011;690;51.454;7.194;2023-01-23T05:42:11;26.38;;;16.67;;
1390;SDS011;690;51.454;7.194;2023-01-23T05:44:38;24.48;;;16.10;;
1390;SDS011;690;51.454;7.194;2023-01-23T05:47:05;26.67;;;17.05;;
1390;SDS011;690;51.454;7.194;2023-01-23T05:49:33;23.20;;;16.13;;
1390;SDS011;690;51.454;7.194;2023-01-23T05:52:00;27.30;;;17.13;;
1390;SDS011;690;51.454;7.194;2023-01-23T05:54:26;22.90;;;15.60;;
1390;SDS011;690;51.454;7.194;2023-01-23T05:56:53;22.55;;;16.05;;
1390;SDS011;690;51.454;7.194;2023-01-23T05:59:20;26.45;;;16.92;;
1390;SDS011;690;51.454;7.194;2023-01-23T06:01:47;26.45;;;16.17;;
1390;SDS011;690;51.454;7.194;2023-01-23T06:04:14;22.50;;;16.38;;
1390;SDS011;690;51.454;7.194;2023-01-23T06:06:42;28.10;;;16.98;;
1390;SDS011;690;51.454;7.194;2023-01-23T06:09:10;24.70;;;16.73;;
1390;SDS011;690;51.454;7.194;2023-01-23T06:11:37;26.83;;;16.92;;
1390;SDS011;690;51.454;7.194;2023-01-23T06:14:04;28.40;;;16.25;;
1390;SDS011;690;51.454;7.194;2023-01-23T06:16:30;24.83;;;16.83;;
1390;SDS011;690;51.454;7.194;2023-01-23T06:18:57;25.70;;;16.25;;
1390;SDS011;690;51.454;7.194;2023-01-23T06:21:24;28.17;;;16.33;;
1390;SDS011;690;51.454;7.194;2023-01-23T06:23:52;22.85;;;14.85;;
1390;SDS011;690;51.454;7.194;2023-01-23T06:26:19;24.92;;;14.98;;
1390;SDS011;690;51.454;7.194;2023-01-23T06:28:46;27.10;;;16.52;;
1390;SDS011;690;51.454;7.194;2023-01-23T06:31:13;26.80;;;15.63;;
1390;SDS011;690;51.454;7.194;2023-01-23T06:33:40;26.35;;;15.85;;
1390;SDS011;690;51.454;7.194;2023-01-23T06:36:07;26.90;;;16.33;;
1390;SDS011;690;51.454;7.194;2023-01-23T06:38:35;28.58;;;17.48;;
1390;SDS011;690;51.454;7.194;2023-01-23T06:41:03;22.08;;;15.82;;
1390;SDS011;690;51.454;7.194;2023-01-23T06:43:30;26.20;;;16.08;;
1390;SDS011;690;51.454;7.194;2023-01-23T06:45:57;26.60;;;16.00;;
1390;SDS011;690;51.454;7.194;2023-01-23T06:48:24;28.52;;;17.40;;
1390;SDS011;690;51.454;7.194;2023-01-23T06:50:50;24.65;;;16.38;;
1390;SDS011;690;51.454;7.194;2023-01-23T06:53:17;25.65;;;16.08;;
1390;SDS011;690;51.454;7.194;2023-01-23T06:55:44;22.92;;;14.55;;
1390;SDS011;690;51.454;7.194;2023-01-23T06:58:13;27.65;;;16.75;;
1390;SDS011;690;51.454;7.194;2023-01-23T07:00:39;29.50;;;18.38;;
1390;SDS011;690;51.454;7.194;2023-01-23T07:03:09;25.13;;;15.82;;
1390;SDS011;690;51.454;7.194;2023-01-23T07:05:36;25.88;;;16.27;;
1390;SDS011;690;51.454;7.194;2023-01-23T07:08:05;25.30;;;15.02;;
1390;SDS011;690;51.454;7.194;2023-01-23T07:10:33;26.90;;;15.80;;
1390;SDS011;690;51.454;7.194;2023-01-23T07:13:02;24.67;;;14.80;;
1390;SDS011;690;51.454;7.194;2023-01-23T07:15:30;28.45;;;17.13;;
1390;SDS011;690;51.454;7.194;2023-01-23T07:17:57;22.17;;;14.48;;
1390;SDS011;690;51.454;7.194;2023-01-23T07:20:25;25.38;;;15.40;;
1390;SDS011;690;51.454;7.194;2023-01-23T07:22:52;21.73;;;13.32;;
1390;SDS011;690;51.454;7.194;2023-01-23T07:25:19;21.38;;;14.07;;
1390;SDS011;690;51.454;7.194;2023-01-23T07:27:46;21.88;;;14.40;;
1390;SDS011;690;51.454;7.194;2023-01-23T07:30:14;20.63;;;13.07;;
1390;SDS011;690;51.454;7.194;2023-01-23T07:32:42;21.88;;;13.27;;
1390;SDS011;690;51.454;7.194;2023-01-23T07:35:09;23.60;;;14.63;;
1390;SDS011;690;51.454;7.194;2023-01-23T07:37:36;24.45;;;13.88;;
1390;SDS011;690;51.454;7.194;2023-01-23T07:40:03;22.40;;;14.65;;
1390;SDS011;690;51.454;7.194;2023-01-23T07:42:31;25.50;;;15.25;;
1390;SDS011;690;51.454;7.194;2023-01-23T07:44:57;24.42;;;15.85;;
1390;SDS011;690;51.454;7.194;2023-01-23T07:47:24;20.98;;;13.23;;
1390;SDS011;690;51.454;7.194;2023-01-23T07:49:52;24.58;;;13.77;;
1390;SDS011;690;51.454;7.194;2023-01-23T07:52:19;25.02;;;14.45;;
1390;SDS011;690;51.454;7.194;2023-01-23T07:54:46;22.73;;;14.70;;
1390;SDS011;690;51.454;7.194;2023-01-23T07:57:13;24.33;;;15.75;;
1390;SDS011;690;51.454;7.194;2023-01-23T07:59:40;25.05;;;15.55;;
1390;SDS011;690;51.454;7.194;2023-01-23T08:02:07;22.42;;;14.50;;
1390;SDS011;690;51.454;7.194;2023-01-23T08:04:35;23.92;;;14.65;;
1390;SDS011;690;51.454;7.194;2023-01-23T08:07:03;22.98;;;13.25;;
1390;SDS011;690;51.454;7.194;2023-01-23T08:09:31;23.13;;;14.00;;
1390;SDS011;690;51.454;7.194;2023-01-23T08:11:58;23.30;;;14.60;;
1390;SDS011;690;51.454;7.194;2023-01-23T08:14:24;27.83;;;15.13;;
1390;SDS011;690;51.454;7.194;2023-01-23T08:16:52;22.38;;;14.30;;
1390;SDS011;690;51.454;7.194;2023-01-23T08:19:19;29.83;;;16.63;;
1390;SDS011;690;51.454;7.194;2023-01-23T08:21:49;21.63;;;14.35;;
1390;SDS011;690;51.454;7.194;2023-01-23T08:24:17;21.83;;;14.63;;
1390;SDS011;690;51.454;7.194;2023-01-23T08:26:45;25.63;;;16.40;;
1390;SDS011;690;51.454;7.194;2023-01-23T08:29:12;27.20;;;14.85;;
1390;SDS011;690;51.454;7.194;2023-01-23T08:31:39;23.13;;;15.13;;
1390;SDS011;690;51.454;7.194;2023-01-23T08:34:05;23.15;;;14.95;;
1390;SDS011;690;51.454;7.194;2023-01-23T08:36:32;22.63;;;14.27;;
1390;SDS011;690;51.454;7.194;2023-01-23T08:38:59;19.02;;;13.57;;
1390;SDS011;690;51.454;7.194;2023-01-23T08:41:27;22.63;;;14.15;;
1390;SDS011;690;51.454;7.194;2023-01-23T08:43:54;21.55;;;13.98;;
1390;SDS011;690;51.454;7.194;2023-01-23T08:46:25;17.00;;;12.63;;
1390;SDS011;690;51.454;7.194;2023-01-23T08:48:52;21.55;;;12.70;;
1390;SDS011;690;51.454;7.194;2023-01-23T08:51:19;19.73;;;12.88;;
1390;SDS011;690;51.454;7.194;2023-01-23T08:53:46;18.60;;;12.35;;
1390;SDS011;690;51.454;7.194;2023-01-23T08:56:14;20.17;;;13.20;;
1390;SDS011;690;51.454;7.194;2023-01-23T08:58:43;20.45;;;12.45;;
1390;SDS011;690;51.454;7.194;2023-01-23T09:01:10;21.25;;;13.60;;
1390;SDS011;690;51.454;7.194;2023-01-23T09:03:38;18.40;;;12.63;;
1390;SDS011;690;51.454;7.194;2023-01-23T09:06:05;18.92;;;12.88;;
1390;SDS011;690;51.454;7.194;2023-01-23T09:08:32;19.77;;;13.05;;
1390;SDS011;690;51.454;7.194;2023-01-23T09:10:59;17.23;;;12.75;;
1390;SDS011;690;51.454;7.194;2023-01-23T09:13:26;23.95;;;13.57;;
1390;SDS011;690;51.454;7.194;2023-01-23T09:15:55;21.05;;;13.07;;
1390;SDS011;690;51.454;7.194;2023-01-23T09:18:22;22.75;;;13.15;;
1390;SDS011;690;51.454;7.194;2023-01-23T09:20:49;17.50;;;12.20;;
1390;SDS011;690;51.454;7.194;2023-01-23T09:23:16;18.00;;;11.27;;
1390;SDS011;690;51.454;7.194;2023-01-23T09:25:43;17.08;;;11.23;;
1390;SDS011;690;51.454;7.194;2023-01-23T09:28:10;16.27;;;11.80;;
1390;SDS011;690;51.454;7.194;2023-01-23T09:30:38;15.05;;;11.20;;
1390;SDS011;690;51.454;7.194;2023-01-23T09:33:06;16.02;;;11.27;;
1390;SDS011;690;51.454;7.194;2023-01-23T09:35:34;15.30;;;11.82;;
1390;SDS011;690;51.454;7.194;2023-01-23T09:38:02;14.88;;;11.18;;
1390;SDS011;690;51.454;7.194;2023-01-23T09:40:33;17.67;;;10.93;;
1390;SDS011;690;51.454;7.194;2023-01-23T09:43:03;13.63;;;10.27;;
1390;SDS011;690;51.454;7.194;2023-01-23T09:45:38;17.88;;;10.85;;
1390;SDS011;690;51.454;7.194;2023-01-23T09:48:13;16.80;;;10.68;;
1390;SDS011;690;51.454;7.194;2023-01-23T09:50:50;16.17;;;11.82;;
1390;SDS011;690;51.454;7.194;2023-01-23T09:53:21;17.02;;;10.35;;
1390;SDS011;690;51.454;7.194;2023-01-23T09:55:52;16.52;;;11.85;;
1390;SDS011;690;51.454;7.194;2023-01-23T09:58:26;17.75;;;11.70;;
1390;SDS011;690;51.454;7.194;2023-01-23T10:00:58;16.65;;;11.35;;
1390;SDS011;690;51.454;7.194;2023-01-23T10:03:27;15.35;;;11.05;;
1390;SDS011;690;51.454;7.194;2023-01-23T10:06:00;15.20;;;10.90;;
1390;SDS011;690;51.454;7.194;2023-01-23T10:08:47;14.32;;;11.00;;
1390;SDS011;690;51.454;7.194;2023-01-23T10:11:23;14.23;;;10.90;;
1390;SDS011;690;51.454;7.194;2023-01-23T10:13:58;15.18;;;10.25;;
1390;SDS011;690;51.454;7.194;2023-01-23T10:16:48;13.38;;;10.40;;
1390;SDS011;690;51.454;7.194;2023-01-23T10:19:34;16.10;;;11.10;;
1390;SDS011;690;51.454;7.194;2023-01-23T10:22:32;14.30;;;11.02;;
1390;SDS011;690;51.454;7.194;2023-01-23T10:25:02;14.40;;;10.82;;
1390;SDS011;690;51.454;7.194;2023-01-23T10:27:37;14.73;;;10.77;;
1390;SDS011;690;51.454;7.194;2023-01-23T10:30:13;16.17;;;11.02;;
1390;SDS011;690;51.454;7.194;2023-01-23T10:32:50;16.77;;;12.32;;
1390;SDS011;690;51.454;7.194;2023-01-23T10:35:21;19.67;;;12.90;;
1390;SDS011;690;51.454;7.194;2023-01-23T10:37:51;20.05;;;13.85;;
1390;SDS011;690;51.454;7.194;2023-01-23T10:40:26;18.40;;;13.40;;
1390;SDS011;690;51.454;7.194;2023-01-23T10:43:12;12.93;;;9.73;;
1390;SDS011;690;51.454;7.194;2023-01-23T10:45:40;15.20;;;10.23;;
1390;SDS011;690;51.454;7.194;2023-01-23T10:48:27;15.67;;;9.67;;
1390;SDS011;690;51.454;7.194;2023-01-23T10:51:09;12.47;;;9.30;;
1390;SDS011;690;51.454;7.194;2023-01-23T10:54:10;12.73;;;9.27;;
1390;SDS011;690;51.454;7.194;2023-01-23T10:56:44;12.55;;;9.13;;
1390;SDS011;690;51.454;7.194;2023-01-23T10:59:17;11.10;;;8.10;;
1390;SDS011;690;51.454;7.194;2023-01-23T11:01:56;11.57;;;8.50;;
1390;SDS011;690;51.454;7.194;2023-01-23T11:04:51;12.30;;;9.00;;
1390;SDS011;690;51.454;7.194;2023-01-23T11:07:20;9.70;;;8.03;;
1390;SDS011;690;51.454;7.194;2023-01-23T11:09:52;10.50;;;8.10;;
1390;SDS011;690;51.454;7.194;2023-01-23T11:12:21;12.30;;;8.68;;
1390;SDS011;690;51.454;7.194;2023-01-23T11:14:49;13.60;;;8.57;;
1390;SDS011;690;51.454;7.194;2023-01-23T11:17:18;14.10;;;9.33;;
1390;SDS011;690;51.454;7.194;2023-01-23T11:19:47;10.17;;;7.90;;
1390;SDS011;690;51.454;7.194;2023-01-23T11:22:24;14.53;;;9.90;;
1390;SDS011;690;51.454;7.194;2023-01-23T11:24:53;14.30;;;9.70;;
1390;SDS011;690;51.454;7.194;2023-01-23T11:27:21;12.05;;;9.70;;
1390;SDS011;690;51.454;7.194;2023-01-23T11:30:02;15.37;;;10.30;;
1390;SDS011;690;51.454;7.194;2023-01-23T11:33:10;14.90;;;10.50;;
1390;SDS011;690;51.454;7.194;2023-01-23T11:35:49;13.20;;;10.27;;
1390;SDS011;690;51.454;7.194;2023-01-23T11:38:26;15.10;;;10.83;;
1390;SDS011;690;51.454;7.194;2023-01-23T11:40:59;15.10;;;11.53;;
1390;SDS011;690;51.454;7.194;2023-01-23T11:43:26;14.60;;;10.10;;
1390;SDS011;690;51.454;7.194;2023-01-23T11:45:57;11.23;;;9.40;;
1390;SDS011;690;51.454;7.194;2023-01-23T11:48:45;10.93;;;9.13;;
1390;SDS011;690;51.454;7.194;2023-01-23T11:51:19;12.03;;;9.27;;
1390;SDS011;690;51.454;7.194;2023-01-23T11:53:55;13.67;;;9.57;;
1390;SDS011;690;51.454;7.194;2023-01-23T11:56:39;12.60;;;8.83;;
1390;SDS011;690;51.454;7.194;2023-01-23T12:02:24;9.80;;;7.97;;
1390;SDS011;690;51.454;7.194;2023-01-23T12:08:17;14.23;;;10.00;;
1390;SDS011;690;51.454;7.194;2023-01-23T12:10:55;13.03;;;10.00;;
1390;SDS011;690;51.454;7.194;2023-01-23T12:13:39;12.30;;;9.00;;
1390;SDS011;690;51.454;7.194;2023-01-23T12:16:13;14.40;;;10.90;;
1390;SDS011;690;51.454;7.194;2023-01-23T12:18:48;13.70;;;10.20;;
1390;SDS011;690;51.454;7.194;2023-01-23T12:21:29;16.07;;;10.53;;
1390;SDS011;690;51.454;7.194;2023-01-23T12:24:09;12.87;;;10.40;;
1390;SDS011;690;51.454;7.194;2023-01-23T12:26:47;12.47;;;9.50;;
1390;SDS011;690;51.454;7.194;2023-01-23T12:32:24;13.43;;;11.77;;
1390;SDS011;690;51.454;7.194;2023-01-23T12:35:07;15.00;;;10.90;;
1390;SDS011;690;51.454;7.194;2023-01-23T12:37:49;20.53;;;13.00;;
1390;SDS011;690;51.454;7.194;2023-01-23T12:40:31;20.70;;;11.80;;
1390;SDS011;690;51.454;7.194;2023-01-23T12:43:06;17.40;;;12.23;;
1390;SDS011;690;51.454;7.194;2023-01-23T12:45:37;17.90;;;12.73;;
1390;SDS011;690;51.454;7.194;2023-01-23T12:48:11;16.63;;;11.93;;
1390;SDS011;690;51.454;7.194;2023-01-23T12:50:41;16.77;;;12.27;;
1390;SDS011;690;51.454;7.194;2023-01-23T12:53:12;17.00;;;11.80;;
1390;SDS011;690;51.454;7.194;2023-01-23T12:55:42;14.27;;;11.30;;
1390;SDS011;690;51.454;7.194;2023-01-23T12:58:19;17.17;;;11.83;;
1390;SDS011;690;51.454;7.194;2023-01-23T13:00:51;17.13;;;11.90;;
1390;SDS011;690;51.454;7.194;2023-01-23T13:06:39;19.77;;;13.87;;
1390;SDS011;690;51.454;7.194;2023-01-23T13:09:32;18.30;;;13.70;;
1390;SDS011;690;51.454;7.194;2023-01-23T13:12:10;16.90;;;12.50;;
1390;SDS011;690;51.454;7.194;2023-01-23T13:14:46;19.17;;;12.10;;
1390;SDS011;690;51.454;7.194;2023-01-23T13:23:27;19.83;;;13.23;;
1390;SDS011;690;51.454;7.194;2023-01-23T13:26:11;20.07;;;12.30;;
1390;SDS011;690;51.454;7.194;2023-01-23T13:29:00;19.30;;;13.57;;
1390;SDS011;690;51.454;7.194;2023-01-23T13:31:34;18.53;;;12.13;;
1390;SDS011;690;51.454;7.194;2023-01-23T13:40:16;20.93;;;14.50;;
1390;SDS011;690;51.454;7.194;2023-01-23T13:42:45;20.40;;;13.47;;
1390;SDS011;690;51.454;7.194;2023-01-23T13:45:25;18.00;;;13.50;;
1390;SDS011;690;51.454;7.194;2023-01-23T13:51:13;19.83;;;13.00;;
1390;SDS011;690;51.454;7.194;2023-01-23T13:53:44;17.47;;;12.53;;
1390;SDS011;690;51.454;7.194;2023-01-23T13:56:30;19.07;;;12.60;;
1390;SDS011;690;51.454;7.194;2023-01-23T13:59:04;17.80;;;12.10;;
1390;SDS011;690;51.454;7.194;2023-01-23T14:01:40;18.87;;;11.90;;
1390;SDS011;690;51.454;7.194;2023-01-23T14:04:29;18.30;;;12.33;;
1390;SDS011;690;51.454;7.194;2023-01-23T14:07:23;17.47;;;11.97;;
1390;SDS011;690;51.454;7.194;2023-01-23T14:13:06;19.40;;;14.00;;
1390;SDS011;690;51.454;7.194;2023-01-23T14:15:37;22.40;;;14.10;;
1390;SDS011;690;51.454;7.194;2023-01-23T14:18:24;19.40;;;12.90;;
1390;SDS011;690;51.454;7.194;2023-01-23T14:21:00;16.08;;;11.35;;
1390;SDS011;690;51.454;7.194;2023-01-23T14:23:31;17.90;;;12.55;;
1390;SDS011;690;51.454;7.194;2023-01-23T14:26:00;17.70;;;12.20;;
1390;SDS011;690;51.454;7.194;2023-01-23T14:28:28;19.30;;;12.73;;
1390;SDS011;690;51.454;7.194;2023-01-23T14:30:56;22.05;;;14.05;;
1390;SDS011;690;51.454;7.194;2023-01-23T14:33:25;20.30;;;12.93;;
1390;SDS011;690;51.454;7.194;2023-01-23T14:35:52;17.65;;;12.95;;
1390;SDS011;690;51.454;7.194;2023-01-23T14:38:28;19.38;;;12.73;;
1390;SDS011;690;51.454;7.194;2023-01-23T14:41:01;20.37;;;12.80;;
1390;SDS011;690;51.454;7.194;2023-01-23T14:43:30;15.63;;;11.88;;
1390;SDS011;690;51.454;7.194;2023-01-23T14:45:59;15.57;;;11.93;;
1390;SDS011;690;51.454;7.194;2023-01-23T14:48:27;24.17;;;14.05;;
1390;SDS011;690;51.454;7.194;2023-01-23T14:51:04;17.08;;;12.32;;
1390;SDS011;690;51.454;7.194;2023-01-23T14:53:35;19.50;;;13.13;;
1390;SDS011;690;51.454;7.194;2023-01-23T14:56:05;22.33;;;14.65;;
1390;SDS011;690;51.454;7.194;2023-01-23T14:58:33;29.30;;;15.03;;
1390;SDS011;690;51.454;7.194;2023-01-23T15:01:01;20.17;;;13.77;;
1390;SDS011;690;51.454;7.194;2023-01-23T15:03:38;18.83;;;13.30;;
1390;SDS011;690;51.454;7.194;2023-01-23T15:06:09;21.40;;;14.77;;
1390;SDS011;690;51.454;7.194;2023-01-23T15:08:40;19.20;;;13.00;;
1390;SDS011;690;51.454;7.194;2023-01-23T15:11:07;20.55;;;14.07;;
1390;SDS011;690;51.454;7.194;2023-01-23T15:13:41;19.35;;;13.52;;
1390;SDS011;690;51.454;7.194;2023-01-23T15:16:16;19.33;;;13.80;;
1390;SDS011;690;51.454;7.194;2023-01-23T15:18:51;17.67;;;13.38;;
1390;SDS011;690;51.454;7.194;2023-01-23T15:21:23;20.30;;;13.35;;
1390;SDS011;690;51.454;7.194;2023-01-23T15:24:02;21.58;;;13.00;;
1390;SDS011;690;51.454;7.194;2023-01-23T15:26:43;21.20;;;13.35;;
1390;SDS011;690;51.454;7.194;2023-01-23T15:29:17;21.00;;;13.80;;
1390;SDS011;690;51.454;7.194;2023-01-23T15:31:45;23.17;;;15.27;;
1390;SDS011;690;51.454;7.194;2023-01-23T15:34:19;20.38;;;13.95;;
1390;SDS011;690;51.454;7.194;2023-01-23T15:36:50;23.35;;;15.40;;
1390;SDS011;690;51.454;7.194;2023-01-23T15:39:23;22.50;;;14.90;;
1390;SDS011;690;51.454;7.194;2023-01-23T15:41:53;19.42;;;13.82;;
1390;SDS011;690;51.454;7.194;2023-01-23T15:44:22;22.58;;;14.90;;
1390;SDS011;690;51.454;7.194;2023-01-23T15:46:51;18.73;;;14.07;;
1390;SDS011;690;51.454;7.194;2023-01-23T15:49:18;19.30;;;13.50;;
1390;SDS011;690;51.454;7.194;2023-01-23T15:51:45;20.33;;;13.73;;
1390;SDS011;690;51.454;7.194;2023-01-23T15:54:14;16.65;;;12.90;;